Time;durP1;ratioP1;P1;durP2;ratioP2;P2;SDS_P1;SDS_P2;PMS_P1;PMS_P2;Temp;Humidity;BMP_temperature;BMP_pressure;BME280_temperature;BME280_humidity;BME280_pressure;Samples;Min_cycle;Max_cycle;Signal;HPM_P1;HPM_P2
2021/10/28 00:14:32;;;;;;;3.90;3.60;;;;;;;;;;5071238;28;20232;-88
2021/10/28 00:17:01;;;;;;;5.07;4.68;;;;;;;;;;5071658;28;20652;-88
2021/10/28 00:20:00;;;;;;;5.10;4.60;;;;;;;;;;5073446;28;20201;-88
2021/10/28 00:22:44;;;;;;;5.90;5.40;;;;;;;;;;5075584;28;20561;-87
2021/10/28 00:25:13;;;;;;;5.68;5.15;;;;;;;;;;5074325;28;20220;-88
2021/10/28 00:27:49;;;;;;;7.25;5.05;;;;;;;;;;5074072;28;20243;-87
2021/10/28 00:30:19;;;;;;;4.65;4.25;;;;;;;;;;5074294;28;20567;-89
2021/10/28 00:33:14;;;;;;;5.25;4.75;;;;;;;;;;5074324;28;20569;-89
2021/10/28 00:35:53;;;;;;;5.55;5.05;;;;;;;;;;5074354;28;20204;-88
2021/10/28 00:38:24;;;;;;;5.88;5.40;;;;;;;;;;5074353;28;20279;-89
2021/10/28 00:41:13;;;;;;;3.72;3.45;;;;;;;;;;5074480;28;20255;-90
2021/10/28 00:44:29;;;;;;;4.80;4.40;;;;;;;;;;5074833;28;20213;-88
2021/10/28 00:47:04;;;;;;;5.50;5.00;;;;;;;;;;5074807;28;20227;-88
2021/10/28 00:49:33;;;;;;;4.25;3.95;;;;;;;;;;5053719;28;20197;-88
2021/10/28 00:52:53;;;;;;;5.28;4.60;;;;;;;;;;5054076;28;20308;-89
2021/10/28 00:55:23;;;;;;;5.38;4.93;;;;;;;;;;5054162;28;20189;-88
2021/10/28 00:58:22;;;;;;;6.07;5.25;;;;;;;;;;5054196;28;21119;-90
2021/10/28 01:01:01;;;;;;;4.80;4.40;;;;;;;;;;5054280;28;20300;-90
2021/10/28 01:03:36;;;;;;;6.57;5.88;;;;;;;;;;5054121;28;20193;-90
2021/10/28 01:06:10;;;;;;;4.68;4.28;;;;;;;;;;5064093;28;20222;-89
2021/10/28 01:08:46;;;;;;;4.45;4.07;;;;;;;;;;5073838;28;20417;-87
2021/10/28 01:11:53;;;;;;;5.15;4.43;;;;;;;;;;5073737;28;20228;-88
2021/10/28 01:14:22;;;;;;;4.63;4.30;;;;;;;;;;5073068;28;20229;-90
2021/10/28 01:17:12;;;;;;;5.50;5.10;;;;;;;;;;5073332;28;20182;-89
2021/10/28 01:19:56;;;;;;;4.72;4.18;;;;;;;;;;5073565;28;20295;-88
2021/10/28 01:22:53;;;;;;;3.75;3.40;;;;;;;;;;5074290;28;20331;-89
2021/10/28 01:25:26;;;;;;;4.75;4.32;;;;;;;;;;5072944;28;20209;-88
2021/10/28 01:28:00;;;;;;;5.20;3.80;;;;;;;;;;5073903;28;20264;-88
2021/10/28 01:30:39;;;;;;;4.32;3.95;;;;;;;;;;5073859;28;20224;-88
2021/10/28 01:33:06;;;;;;;4.63;4.22;;;;;;;;;;5074090;28;20192;-88
2021/10/28 01:35:40;;;;;;;4.03;3.72;;;;;;;;;;5074881;28;20264;-88
2021/10/28 01:38:16;;;;;;;5.72;5.22;;;;;;;;;;5074180;28;20223;-88
2021/10/28 01:41:38;;;;;;;4.65;4.18;;;;;;;;;;5053938;28;20217;-89
2021/10/28 01:44:21;;;;;;;3.85;3.55;;;;;;;;;;5053764;28;20185;-88
2021/10/28 01:46:57;;;;;;;3.22;2.92;;;;;;;;;;5053519;28;20209;-89
2021/10/28 01:49:30;;;;;;;4.20;3.40;;;;;;;;;;5053014;28;20195;-88
2021/10/28 01:52:18;;;;;;;3.83;3.53;;;;;;;;;;5054342;28;20685;-88
2021/10/28 01:55:16;;;;;;;3.58;3.38;;;;;;;;;;5053431;28;20273;-88
2021/10/28 01:58:00;;;;;;;3.90;3.60;;;;;;;;;;5055098;28;20273;-89
2021/10/28 02:00:37;;;;;;;3.70;3.42;;;;;;;;;;5071211;28;20606;-88
2021/10/28 02:03:13;;;;;;;3.35;3.15;;;;;;;;;;5072674;28;20173;-90
2021/10/28 02:05:40;;;;;;;3.05;2.85;;;;;;;;;;5072952;28;20647;-89
2021/10/28 02:08:10;;;;;;;4.70;4.30;;;;;;;;;;5073838;28;20257;-89
2021/10/28 02:10:55;;;;;;;4.88;4.47;;;;;;;;;;5073829;28;20217;-87
2021/10/28 02:13:23;;;;;;;4.97;4.53;;;;;;;;;;5076634;28;20324;-88
2021/10/28 02:16:00;;;;;;;7.85;4.57;;;;;;;;;;5076596;28;20211;-88
2021/10/28 02:18:30;;;;;;;5.55;4.88;;;;;;;;;;5075752;28;20203;-88
2021/10/28 02:21:02;;;;;;;4.85;4.38;;;;;;;;;;5076889;28;20300;-87
2021/10/28 02:23:50;;;;;;;4.60;4.20;;;;;;;;;;5076305;28;20189;-87
2021/10/28 02:26:31;;;;;;;5.15;4.65;;;;;;;;;;5073111;28;20256;-86
2021/10/28 02:29:07;;;;;;;6.38;4.63;;;;;;;;;;5074851;28;20239;-88
2021/10/28 02:31:35;;;;;;;4.15;3.75;;;;;;;;;;5075822;28;20278;-88
2021/10/28 02:34:04;;;;;;;4.70;4.28;;;;;;;;;;5073885;28;20250;-88
2021/10/28 02:37:20;;;;;;;5.97;4.60;;;;;;;;;;5072365;28;20283;-89
2021/10/28 02:39:50;;;;;;;4.45;4.07;;;;;;;;;;5073841;28;20181;-88
2021/10/28 02:43:02;;;;;;;5.10;4.60;;;;;;;;;;5073338;28;20217;-87
2021/10/28 02:45:33;;;;;;;5.07;4.60;;;;;;;;;;5074557;28;20204;-86
2021/10/28 02:48:00;;;;;;;3.90;3.67;;;;;;;;;;5073389;28;20228;-88
2021/10/28 02:50:48;;;;;;;4.38;4.03;;;;;;;;;;5073644;28;20794;-87
2021/10/28 02:53:16;;;;;;;4.55;4.18;;;;;;;;;;5073275;28;20189;-87
2021/10/28 02:56:02;;;;;;;5.47;4.97;;;;;;;;;;5073385;28;20644;-88
2021/10/28 02:58:30;;;;;;;6.03;5.32;;;;;;;;;;5073308;28;20186;-87
2021/10/28 03:01:00;;;;;;;5.05;4.60;;;;;;;;;;5072327;28;20645;-87
2021/10/28 03:03:30;;;;;;;4.60;4.20;;;;;;;;;;5072825;28;20661;-88
2021/10/28 03:06:00;;;;;;;4.88;4.47;;;;;;;;;;5073126;28;20284;-88
2021/10/28 03:08:35;;;;;;;4.60;4.25;;;;;;;;;;5073645;28;20616;-87
2021/10/28 03:11:11;;;;;;;4.97;4.57;;;;;;;;;;5072645;28;20220;-88
2021/10/28 03:13:53;;;;;;;6.07;4.90;;;;;;;;;;5071892;28;20320;-88
2021/10/28 03:16:31;;;;;;;5.28;4.78;;;;;;;;;;5072146;28;20204;-88
2021/10/28 03:19:23;;;;;;;4.78;4.38;;;;;;;;;;5072570;28;20192;-86
2021/10/28 03:27:32;;;;;;;3.75;3.45;;;;;;;;;;5074705;28;20212;-88
2021/10/28 03:30:15;;;;;;;3.90;3.60;;;;;;;;;;5075567;28;20184;-87
2021/10/28 03:32:43;;;;;;;4.00;3.70;;;;;;;;;;5075007;28;20281;-88
2021/10/28 03:35:14;;;;;;;4.35;3.95;;;;;;;;;;5075860;28;20276;-88
2021/10/28 03:37:46;;;;;;;3.70;3.45;;;;;;;;;;5075740;28;20287;-88
2021/10/28 03:55:18;;;;;;;5.25;4.80;;;;;;;;;;5058338;28;20189;-87
2021/10/28 03:58:29;;;;;;;4.95;4.53;;;;;;;;;;5077721;28;20226;-89
2021/10/28 04:07:29;;;;;;;6.63;6.03;;;;;;;;;;5062027;28;20649;-87
2021/10/28 04:18:51;;;;;;;5.63;5.13;;;;;;;;;;5014846;28;20190;-87
2021/10/28 04:21:50;;;;;;;6.22;5.72;;;;;;;;;;5015069;28;20234;-86
2021/10/28 04:30:27;;;;;;;5.78;5.18;;;;;;;;;;5014188;28;20206;-88
2021/10/28 04:33:00;;;;;;;5.40;4.90;;;;;;;;;;5014237;28;20186;-87
2021/10/28 04:35:48;;;;;;;7.18;5.82;;;;;;;;;;5014823;28;20191;-87
2021/10/28 04:38:22;;;;;;;6.68;6.00;;;;;;;;;;5014468;28;20197;-87
2021/10/28 04:40:54;;;;;;;4.88;4.50;;;;;;;;;;5014027;28;20694;-88
2021/10/28 04:43:30;;;;;;;5.53;5.03;;;;;;;;;;5014340;28;20182;-87
2021/10/28 04:46:06;;;;;;;4.50;4.10;;;;;;;;;;5014651;28;20199;-87
2021/10/28 04:48:46;;;;;;;4.57;4.18;;;;;;;;;;5013437;28;20223;-87
2021/10/28 04:51:27;;;;;;;7.88;4.55;;;;;;;;;;5014141;28;20318;-87
2021/10/28 04:54:00;;;;;;;5.80;5.30;;;;;;;;;;5014764;28;20191;-88
2021/10/28 04:56:51;;;;;;;5.28;4.78;;;;;;;;;;5015266;28;20179;-88
2021/10/28 04:59:55;;;;;;;4.95;4.53;;;;;;;;;;5014179;28;20199;-88
2021/10/28 05:02:29;;;;;;;6.03;4.82;;;;;;;;;;5014990;28;20186;-87
2021/10/28 05:05:00;;;;;;;4.53;4.13;;;;;;;;;;5014193;28;20182;-87
2021/10/28 05:07:34;;;;;;;5.53;5.03;;;;;;;;;;5014434;28;20286;-88
2021/10/28 05:10:09;;;;;;;5.07;4.47;;;;;;;;;;5015130;28;20913;-88
2021/10/28 05:12:43;;;;;;;4.85;4.35;;;;;;;;;;5016219;28;20305;-88
2021/10/28 05:15:36;;;;;;;3.72;3.42;;;;;;;;;;5052437;28;20434;-86
2021/10/28 05:18:06;;;;;;;3.80;3.50;;;;;;;;;;5055210;28;20217;-87
2021/10/28 05:20:36;;;;;;;3.00;2.80;;;;;;;;;;5062054;28;20225;-88
2021/10/28 05:23:56;;;;;;;3.17;2.97;;;;;;;;;;5075071;28;20217;-88
2021/10/28 05:27:11;;;;;;;3.63;3.33;;;;;;;;;;5075279;28;20230;-87
2021/10/28 05:30:28;;;;;;;4.55;4.15;;;;;;;;;;5075122;28;20220;-88
2021/10/28 05:33:03;;;;;;;4.63;4.22;;;;;;;;;;5075065;28;20205;-87
2021/10/28 05:35:33;;;;;;;4.00;3.67;;;;;;;;;;5074739;28;20843;-87
2021/10/28 05:38:15;;;;;;;3.17;2.97;;;;;;;;;;5075020;28;20656;-86
2021/10/28 05:40:44;;;;;;;4.00;3.70;;;;;;;;;;5074280;28;20300;-87
2021/10/28 05:44:05;;;;;;;4.72;4.32;;;;;;;;;;5074801;28;20650;-87
2021/10/28 05:47:23;;;;;;;4.63;4.25;;;;;;;;;;5074906;28;20184;-86
2021/10/28 05:50:15;;;;;;;3.72;3.42;;;;;;;;;;5074508;28;20216;-87
2021/10/28 05:53:50;;;;;;;4.03;3.72;;;;;;;;;;5074243;28;20305;-87
2021/10/28 05:57:21;;;;;;;3.60;3.30;;;;;;;;;;5074237;28;20201;-88
2021/10/28 06:03:32;;;;;;;5.68;5.18;;;;;;;;;;5074316;28;20562;-89
2021/10/28 06:06:22;;;;;;;4.70;4.30;;;;;;;;;;5074025;28;20657;-90
2021/10/28 06:08:50;;;;;;;4.47;4.07;;;;;;;;;;5073867;28;20252;-89
2021/10/28 06:11:35;;;;;;;4.32;3.92;;;;;;;;;;5073641;28;20216;-90
2021/10/28 06:14:03;;;;;;;3.00;2.80;;;;;;;;;;5068461;28;20240;-90
2021/10/28 06:16:41;;;;;;;3.90;3.55;;;;;;;;;;5073423;28;20241;-89
2021/10/28 06:19:27;;;;;;;2.97;2.72;;;;;;;;;;5073900;28;20694;-90
2021/10/28 06:22:06;;;;;;;2.65;2.45;;;;;;;;;;5073876;28;20244;-90
2021/10/28 06:24:35;;;;;;;2.63;2.42;;;;;;;;;;5073747;28;20197;-89
2021/10/28 06:27:18;;;;;;;2.63;2.42;;;;;;;;;;5073653;28;20201;-89
2021/10/28 06:30:02;;;;;;;3.60;3.35;;;;;;;;;;5073531;28;20201;-91
2021/10/28 06:32:52;;;;;;;3.28;3.08;;;;;;;;;;5074036;28;20300;-91
2021/10/28 06:39:02;;;;;;;3.95;3.63;;;;;;;;;;5073718;28;20235;-90
2021/10/28 06:45:26;;;;;;;4.10;3.75;;;;;;;;;;5073417;28;20220;-90
2021/10/28 06:48:01;;;;;;;5.03;4.63;;;;;;;;;;5073550;28;20270;-89
2021/10/28 06:51:19;;;;;;;4.72;4.32;;;;;;;;;;5072972;28;20226;-90
2021/10/28 06:54:25;;;;;;;5.07;4.68;;;;;;;;;;5073649;28;20213;-89
2021/10/28 07:03:44;;;;;;;5.13;4.72;;;;;;;;;;5075823;28;20319;-87
2021/10/28 07:06:13;;;;;;;3.88;3.58;;;;;;;;;;5068038;28;20568;-89
2021/10/28 07:08:53;;;;;;;3.85;3.45;;;;;;;;;;5072763;28;20223;-89
2021/10/28 07:12:21;;;;;;;3.60;3.30;;;;;;;;;;5073043;28;20338;-89
2021/10/28 07:15:23;;;;;;;3.83;3.53;;;;;;;;;;5059651;28;20260;-90
2021/10/28 07:26:38;;;;;;;5.85;5.35;;;;;;;;;;5013597;28;20206;-89
2021/10/28 07:59:30;;;;;;;7.15;6.45;;;;;;;;;;5032112;28;20190;-88
2021/10/28 08:13:36;;;;;;;8.27;7.57;;;;;;;;;;5032740;28;20225;-88
2021/10/28 08:17:00;;;;;;;7.43;6.68;;;;;;;;;;5037889;28;20205;-89
2021/10/28 08:19:41;;;;;;;6.65;5.97;;;;;;;;;;5032708;28;20195;-88
2021/10/28 08:22:24;;;;;;;5.65;5.15;;;;;;;;;;5032704;28;20646;-88
2021/10/28 08:31:22;;;;;;;5.20;4.78;;;;;;;;;;5032513;28;20639;-88
2021/10/28 08:33:55;;;;;;;6.07;5.57;;;;;;;;;;5032018;28;20202;-89
2021/10/28 08:36:37;;;;;;;5.65;5.15;;;;;;;;;;5031467;28;20194;-88
2021/10/28 08:39:56;;;;;;;4.93;4.50;;;;;;;;;;5032068;28;20563;-88
2021/10/28 08:42:50;;;;;;;6.78;5.63;;;;;;;;;;5022751;28;20672;-89
2021/10/28 08:45:47;;;;;;;5.05;4.55;;;;;;;;;;5036608;28;20186;-88
2021/10/28 08:48:33;;;;;;;5.18;4.68;;;;;;;;;;5036597;28;20535;-87
2021/10/28 08:51:17;;;;;;;5.28;4.78;;;;;;;;;;5035498;28;20226;-88
2021/10/28 08:55:01;;;;;;;4.75;4.35;;;;;;;;;;5028519;28;20241;-88
2021/10/28 08:58:20;;;;;;;4.53;4.13;;;;;;;;;;5021396;28;20285;-87
2021/10/28 09:24:12;;;;;;;4.80;3.80;;;;;;;;;;5056313;28;20255;-85
2021/10/28 09:26:57;;;;;;;3.13;2.92;;;;;;;;;;5056369;28;20208;-87
2021/10/28 09:29:36;;;;;;;3.83;3.42;;;;;;;;;;5056024;28;20204;-87
2021/10/28 09:32:18;;;;;;;3.72;3.35;;;;;;;;;;5054215;28;20229;-88
2021/10/28 09:43:38;;;;;;;3.03;2.83;;;;;;;;;;5055244;28;20212;-88
2021/10/28 09:51:58;;;;;;;3.15;2.78;;;;;;;;;;5054029;28;20735;-88
2021/10/28 09:54:44;;;;;;;3.00;2.80;;;;;;;;;;5055195;28;20616;-88
2021/10/28 10:00:20;;;;;;;3.47;3.17;;;;;;;;;;4992822;28;20208;-87
2021/10/28 10:03:08;;;;;;;4.50;3.20;;;;;;;;;;5040189;28;20201;-88
2021/10/28 10:05:37;;;;;;;3.67;3.38;;;;;;;;;;5054456;28;20194;-89
2021/10/28 10:08:07;;;;;;;2.78;2.58;;;;;;;;;;5054923;28;20240;-86
2021/10/28 10:13:02;;;;;;;4.40;3.10;;;;;;;;;;4995518;22;20583;-84
2021/10/28 10:15:29;;;;;;;2.58;2.42;;;;;;;;;;4975285;28;20208;-85
2021/10/28 10:18:00;;;;;;;3.20;2.90;;;;;;;;;;4975674;28;20235;-85
2021/10/28 10:20:34;;;;;;;2.70;2.50;;;;;;;;;;4975532;28;20641;-86
2021/10/28 10:26:15;;;;;;;3.17;2.42;;;;;;;;;;4949885;29;20236;-86
2021/10/28 11:26:00;;;;;;;1.77;1.67;;;;;;;;;;4954466;29;20212;-86
2021/10/28 11:28:55;;;;;;;1.65;1.55;;;;;;;;;;4954448;28;20235;-86
2021/10/28 11:31:56;;;;;;;2.75;2.55;;;;;;;;;;4953898;28;20243;-86
2021/10/28 12:16:52;;;;;;;3.60;3.30;;;;;;;;;;4968161;28;20254;-86
2021/10/28 12:25:35;;;;;;;3.63;2.97;;;;;;;;;;4965141;29;20193;-85
2021/10/28 12:45:35;;;;;;;3.30;3.00;;;;;;;;;;4956781;29;20216;-85
2021/10/28 12:51:11;;;;;;;3.17;2.70;;;;;;;;;;4941614;28;20339;-85
2021/10/28 12:54:03;;;;;;;2.63;2.42;;;;;;;;;;4957422;28;20209;-85
2021/10/28 13:02:29;;;;;;;2.30;2.10;;;;;;;;;;4957133;28;20228;-85
2021/10/28 13:35:58;;;;;;;2.20;2.00;;;;;;;;;;4956494;29;20679;-84
2021/10/28 13:49:51;;;;;;;3.05;2.85;;;;;;;;;;4956334;29;20204;-84
2021/10/28 13:52:35;;;;;;;2.60;2.40;;;;;;;;;;4956988;28;20221;-84
2021/10/28 13:55:17;;;;;;;2.45;2.25;;;;;;;;;;4955859;29;20205;-84
2021/10/28 13:58:06;;;;;;;2.17;1.98;;;;;;;;;;4954885;29;20683;-85
2021/10/28 14:14:38;;;;;;;2.30;2.20;;;;;;;;;;4955147;29;20217;-85
2021/10/28 14:15:37;;;;;;;2.67;2.47;;;;;;;;;;4954523;29;20200;-85
2021/10/28 14:21:20;;;;;;;2.60;2.40;;;;;;;;;;4954899;28;20197;-83
2021/10/28 14:24:14;;;;;;;3.10;2.88;;;;;;;;;;4954385;28;20218;-85
2021/10/28 14:27:04;;;;;;;3.50;3.20;;;;;;;;;;4954948;29;20205;-84
2021/10/28 15:27:49;;;;;;;4.82;4.32;;;;;;;;;;4952797;29;20207;-83
2021/10/28 15:30:22;;;;;;;3.40;3.10;;;;;;;;;;4975461;28;20712;-83
2021/10/28 15:35:40;;;;;;;3.90;3.60;;;;;;;;;;4934099;29;20208;-84
2021/10/28 15:38:20;;;;;;;2.83;2.55;;;;;;;;;;4933875;29;20226;-83
2021/10/28 15:55:03;;;;;;;5.13;4.32;;;;;;;;;;4937995;29;20571;-83
2021/10/28 15:58:03;;;;;;;4.07;3.78;;;;;;;;;;4938198;29;20202;-82
2021/10/28 16:22:45;;;;;;;6.57;5.60;;;;;;;;;;4956734;28;20243;-83
2021/10/28 16:25:13;;;;;;;5.30;4.80;;;;;;;;;;4956693;29;20200;-82
2021/10/28 16:27:40;;;;;;;5.53;4.68;;;;;;;;;;4956033;29;20202;-84
2021/10/28 16:30:09;;;;;;;5.65;5.10;;;;;;;;;;4956217;28;20205;-83
2021/10/28 16:32:37;;;;;;;7.72;6.20;;;;;;;;;;4956265;28;20303;-83
2021/10/28 16:35:07;;;;;;;5.70;5.07;;;;;;;;;;4956400;29;20208;-84
2021/10/28 16:37:35;;;;;;;6.05;5.50;;;;;;;;;;4956714;29;20181;-84
2021/10/28 16:40:03;;;;;;;4.97;4.57;;;;;;;;;;4955974;28;20211;-83
2021/10/28 16:42:31;;;;;;;5.18;4.68;;;;;;;;;;4956833;28;20240;-84
2021/10/28 16:44:58;;;;;;;5.15;4.65;;;;;;;;;;4957066;28;20201;-83
2021/10/28 16:47:27;;;;;;;5.07;4.57;;;;;;;;;;4954933;28;20594;-83
2021/10/28 16:49:55;;;;;;;5.93;5.43;;;;;;;;;;4954835;29;20733;-83
2021/10/28 16:52:24;;;;;;;5.85;5.22;;;;;;;;;;4954844;28;20229;-84
2021/10/28 16:54:51;;;;;;;5.82;5.30;;;;;;;;;;4955014;28;20213;-84
2021/10/28 16:57:19;;;;;;;5.22;4.82;;;;;;;;;;4954338;29;20177;-83
2021/10/28 16:59:46;;;;;;;6.57;5.35;;;;;;;;;;4953957;29;20190;-83
2021/10/28 17:02:15;;;;;;;7.30;6.60;;;;;;;;;;4954659;28;20233;-83
2021/10/28 17:04:43;;;;;;;6.72;6.13;;;;;;;;;;4954786;29;20189;-84
2021/10/28 17:07:11;;;;;;;7.35;6.53;;;;;;;;;;4954161;29;20194;-84
2021/10/28 17:09:40;;;;;;;6.80;6.20;;;;;;;;;;4954240;29;20193;-85
2021/10/28 17:12:08;;;;;;;6.07;5.53;;;;;;;;;;4953894;28;20253;-86
2021/10/28 17:14:35;;;;;;;8.07;7.32;;;;;;;;;;4954556;28;20205;-85
2021/10/28 17:17:03;;;;;;;5.20;4.72;;;;;;;;;;4954726;29;20186;-84
2021/10/28 17:19:31;;;;;;;8.07;7.20;;;;;;;;;;4954113;28;20205;-84
2021/10/28 17:21:58;;;;;;;7.10;6.32;;;;;;;;;;4955397;28;20264;-84
2021/10/28 17:24:33;;;;;;;7.70;7.00;;;;;;;;;;4955306;28;20288;-83
2021/10/28 17:27:02;;;;;;;7.25;6.55;;;;;;;;;;4955123;29;20262;-83
2021/10/28 17:29:30;;;;;;;8.10;7.22;;;;;;;;;;4954853;29;20248;-84
2021/10/28 17:31:57;;;;;;;7.03;6.22;;;;;;;;;;4955785;28;20236;-82
2021/10/28 17:34:27;;;;;;;6.32;5.75;;;;;;;;;;4954838;28;20228;-82
2021/10/28 17:36:55;;;;;;;8.15;7.35;;;;;;;;;;4954611;29;20205;-83
2021/10/28 17:39:26;;;;;;;7.75;7.03;;;;;;;;;;5027820;22;20236;-88
2021/10/28 17:41:54;;;;;;;8.13;7.05;;;;;;;;;;5056254;28;20207;-86
2021/10/28 17:44:40;;;;;;;7.60;6.90;;;;;;;;;;5056465;28;20202;-87
2021/10/28 17:47:24;;;;;;;8.23;7.47;;;;;;;;;;5055646;28;20755;-86
2021/10/28 17:50:01;;;;;;;7.95;7.15;;;;;;;;;;5057051;28;20229;-88
2021/10/28 17:52:32;;;;;;;7.47;6.78;;;;;;;;;;5056576;28;20178;-86
2021/10/28 17:55:17;;;;;;;8.88;7.95;;;;;;;;;;5056068;28;20201;-87
2021/10/28 17:57:49;;;;;;;8.68;7.88;;;;;;;;;;5058311;28;20669;-87
2021/10/28 18:01:27;;;;;;;8.25;7.45;;;;;;;;;;5053419;28;20222;-86
2021/10/28 18:04:35;;;;;;;10.90;9.80;;;;;;;;;;5055262;28;20218;-87
2021/10/28 18:07:46;;;;;;;8.40;7.57;;;;;;;;;;5056864;28;20596;-86
2021/10/28 18:10:24;;;;;;;9.80;8.80;;;;;;;;;;5043439;28;20232;-88
2021/10/28 18:12:55;;;;;;;10.30;9.23;;;;;;;;;;5055089;28;20215;-86
2021/10/28 18:15:35;;;;;;;15.60;9.57;;;;;;;;;;5055280;28;20188;-85
2021/10/28 18:18:22;;;;;;;10.70;9.25;;;;;;;;;;5055920;28;20186;-86
2021/10/28 18:20:52;;;;;;;10.98;9.88;;;;;;;;;;5055092;28;20182;-86
2021/10/28 18:23:19;;;;;;;10.60;9.50;;;;;;;;;;5055303;28;20210;-86
2021/10/28 18:26:11;;;;;;;9.48;7.68;;;;;;;;;;5055638;28;20184;-88
2021/10/28 18:28:42;;;;;;;10.30;9.27;;;;;;;;;;5054714;28;20304;-86
2021/10/28 18:31:10;;;;;;;11.77;10.30;;;;;;;;;;5056835;28;20192;-86
2021/10/28 18:33:39;;;;;;;10.32;9.23;;;;;;;;;;5057975;28;20221;-87
2021/10/28 18:36:09;;;;;;;10.45;8.68;;;;;;;;;;5057058;28;20185;-87
2021/10/28 18:38:37;;;;;;;9.25;8.27;;;;;;;;;;5053195;28;20225;-88
2021/10/28 18:41:07;;;;;;;10.07;8.90;;;;;;;;;;5053519;28;20202;-86
2021/10/28 18:43:34;;;;;;;9.55;8.65;;;;;;;;;;5053999;28;20307;-89
2021/10/28 18:46:02;;;;;;;9.40;8.43;;;;;;;;;;5056921;28;20585;-87
2021/10/28 18:48:30;;;;;;;9.45;8.52;;;;;;;;;;5057208;28;20273;-87
2021/10/28 18:50:58;;;;;;;9.55;8.52;;;;;;;;;;5056872;28;20224;-87
2021/10/28 18:53:28;;;;;;;9.75;8.35;;;;;;;;;;5055743;28;20653;-86
2021/10/28 18:55:57;;;;;;;10.82;8.93;;;;;;;;;;5052398;28;20211;-86
2021/10/28 18:58:25;;;;;;;8.85;7.68;;;;;;;;;;5053298;28;20573;-85
2021/10/28 19:00:52;;;;;;;11.63;10.40;;;;;;;;;;5051748;28;20331;-85
2021/10/28 19:03:20;;;;;;;10.20;9.07;;;;;;;;;;5052817;28;20581;-86
2021/10/28 19:05:52;;;;;;;8.18;7.30;;;;;;;;;;5053461;28;20285;-84
2021/10/28 19:08:20;;;;;;;10.10;8.45;;;;;;;;;;5053125;28;20668;-87
2021/10/28 19:10:49;;;;;;;10.15;8.40;;;;;;;;;;5052560;28;20716;-87
2021/10/28 19:13:16;;;;;;;9.18;7.40;;;;;;;;;;5052497;28;20223;-86
2021/10/28 19:15:44;;;;;;;11.55;9.40;;;;;;;;;;5053489;28;20206;-87
2021/10/28 19:18:13;;;;;;;11.82;8.90;;;;;;;;;;5053205;28;20216;-87
2021/10/28 19:20:41;;;;;;;12.27;9.70;;;;;;;;;;5054006;28;20229;-87
2021/10/28 19:23:09;;;;;;;9.25;8.25;;;;;;;;;;5052421;28;20660;-87
2021/10/28 19:25:36;;;;;;;9.40;7.43;;;;;;;;;;5051939;28;20217;-88
2021/10/28 19:28:07;;;;;;;10.00;7.57;;;;;;;;;;5052248;28;20205;-89
2021/10/28 19:30:38;;;;;;;10.15;8.85;;;;;;;;;;5052785;28;20198;-87
2021/10/28 19:33:09;;;;;;;12.48;10.07;;;;;;;;;;5053358;28;20563;-88
2021/10/28 19:35:40;;;;;;;10.50;8.65;;;;;;;;;;5053335;28;20255;-89
2021/10/28 19:38:15;;;;;;;10.77;9.60;;;;;;;;;;5054505;28;20284;-89
2021/10/28 19:46:14;;;;;;;11.90;10.80;;;;;;;;;;5013270;28;20179;-86
2021/10/28 19:48:42;;;;;;;11.10;8.52;;;;;;;;;;5014511;28;20586;-87
2021/10/28 19:51:11;;;;;;;10.68;8.85;;;;;;;;;;5015683;28;20250;-90
2021/10/28 19:53:39;;;;;;;10.63;7.03;;;;;;;;;;5013489;28;20195;-88
2021/10/28 19:56:13;;;;;;;10.70;8.18;;;;;;;;;;5014723;28;20638;-87
2021/10/28 19:58:48;;;;;;;10.18;7.93;;;;;;;;;;5014546;28;20226;-88
2021/10/28 20:01:28;;;;;;;9.75;7.80;;;;;;;;;;5013702;28;20223;-89
2021/10/28 20:04:12;;;;;;;9.13;7.82;;;;;;;;;;5013642;28;20202;-87
2021/10/28 20:06:46;;;;;;;10.82;8.82;;;;;;;;;;5014348;28;20253;-87
2021/10/28 20:14:58;;;;;;;11.55;9.98;;;;;;;;;;5014605;28;20202;-85
2021/10/28 20:20:14;;;;;;;12.65;9.55;;;;;;;;;;5015074;28;20599;-86
2021/10/28 20:22:44;;;;;;;13.07;10.27;;;;;;;;;;5014440;28;20188;-86
2021/10/28 20:25:17;;;;;;;13.93;11.63;;;;;;;;;;5013870;28;20207;-87
2021/10/28 20:27:47;;;;;;;11.93;10.30;;;;;;;;;;5015985;28;20211;-86
2021/10/28 20:30:17;;;;;;;12.35;10.50;;;;;;;;;;5016707;28;20258;-84
2021/10/28 20:32:45;;;;;;;13.55;10.40;;;;;;;;;;5018895;28;20205;-85
2021/10/28 20:35:26;;;;;;;10.15;9.05;;;;;;;;;;5018541;28;20185;-85
2021/10/28 20:37:57;;;;;;;15.35;10.65;;;;;;;;;;5022478;28;20548;-87
2021/10/28 20:40:26;;;;;;;13.15;10.50;;;;;;;;;;5055351;28;20225;-87
2021/10/28 20:42:54;;;;;;;13.52;10.27;;;;;;;;;;5061351;28;20269;-85
2021/10/28 20:45:26;;;;;;;12.85;10.40;;;;;;;;;;5060194;28;20221;-85
2021/10/28 20:47:54;;;;;;;15.10;11.48;;;;;;;;;;5059094;28;20188;-85
2021/10/28 20:50:25;;;;;;;12.15;10.30;;;;;;;;;;5062142;28;20213;-86
2021/10/28 20:52:54;;;;;;;9.10;8.05;;;;;;;;;;5059813;28;20247;-88
2021/10/28 20:55:24;;;;;;;12.90;10.88;;;;;;;;;;5060019;28;20660;-87
2021/10/28 20:57:52;;;;;;;13.23;10.43;;;;;;;;;;5077817;28;20671;-86
2021/10/28 21:00:24;;;;;;;12.38;11.10;;;;;;;;;;5064729;28;20309;-86
2021/10/28 21:02:54;;;;;;;12.30;10.55;;;;;;;;;;5058687;28;20193;-86
2021/10/28 21:05:22;;;;;;;14.52;12.90;;;;;;;;;;5059295;28;20257;-85
2021/10/28 21:07:51;;;;;;;15.88;11.98;;;;;;;;;;5059011;28;20193;-86
2021/10/28 21:10:26;;;;;;;14.00;11.63;;;;;;;;;;5057843;28;20217;-87
2021/10/28 21:13:01;;;;;;;15.40;13.18;;;;;;;;;;5057562;28;20194;-87
2021/10/28 21:15:30;;;;;;;13.77;11.80;;;;;;;;;;5056942;28;20203;-85
2021/10/28 21:17:58;;;;;;;16.48;12.88;;;;;;;;;;5057508;28;20186;-87
2021/10/28 21:20:27;;;;;;;14.35;11.15;;;;;;;;;;5057426;28;20650;-88
2021/10/28 21:22:55;;;;;;;13.65;11.10;;;;;;;;;;5057311;28;20201;-87
2021/10/28 21:25:24;;;;;;;17.73;11.30;;;;;;;;;;5057476;28;20202;-86
2021/10/28 21:27:51;;;;;;;15.15;12.13;;;;;;;;;;5057777;28;20178;-87
2021/10/28 21:30:19;;;;;;;13.88;11.00;;;;;;;;;;5057512;28;20217;-88
2021/10/28 21:32:49;;;;;;;13.52;11.73;;;;;;;;;;5057588;28;20205;-86
2021/10/28 21:35:18;;;;;;;14.55;10.90;;;;;;;;;;5057367;28;20186;-87
2021/10/28 21:37:46;;;;;;;15.25;12.20;;;;;;;;;;5057587;28;20679;-86
2021/10/28 21:40:16;;;;;;;12.00;9.93;;;;;;;;;;5056829;28;20727;-86
2021/10/28 21:42:44;;;;;;;15.73;12.73;;;;;;;;;;5057966;28;20198;-85
2021/10/28 21:45:16;;;;;;;14.90;11.05;;;;;;;;;;5057153;28;20228;-86
2021/10/28 21:47:46;;;;;;;16.83;11.82;;;;;;;;;;5056434;28;20676;-85
2021/10/28 21:50:17;;;;;;;15.70;12.43;;;;;;;;;;5059555;28;20252;-84
2021/10/28 21:52:51;;;;;;;17.65;12.68;;;;;;;;;;5058575;28;20200;-86
2021/10/28 21:55:31;;;;;;;15.13;11.60;;;;;;;;;;5058378;28;20657;-87
2021/10/28 21:58:06;;;;;;;14.65;10.63;;;;;;;;;;5058438;28;20723;-86
2021/10/28 22:00:41;;;;;;;15.50;10.23;;;;;;;;;;5059321;28;20577;-86
2021/10/28 22:25:29;;;;;;;17.67;11.80;;;;;;;;;;5057699;28;20264;-85
2021/10/28 22:27:57;;;;;;;15.40;12.38;;;;;;;;;;5058304;28;20221;-86
2021/10/28 22:30:25;;;;;;;15.52;11.98;;;;;;;;;;5057623;28;20746;-87
2021/10/28 22:32:54;;;;;;;18.67;13.52;;;;;;;;;;5057188;28;20284;-86
2021/10/28 22:35:29;;;;;;;17.08;13.70;;;;;;;;;;5058596;28;20266;-86
2021/10/28 22:38:02;;;;;;;18.65;13.98;;;;;;;;;;5058445;28;20197;-87
2021/10/28 22:40:36;;;;;;;15.93;13.07;;;;;;;;;;5057260;28;20236;-86
2021/10/28 22:43:06;;;;;;;16.70;12.65;;;;;;;;;;5057814;28;20204;-87
2021/10/28 22:45:34;;;;;;;21.17;14.43;;;;;;;;;;5057971;28;20290;-85
2021/10/28 22:48:02;;;;;;;20.23;15.88;;;;;;;;;;5057814;28;20189;-85
2021/10/28 22:50:31;;;;;;;17.88;14.32;;;;;;;;;;5057025;28;20256;-88
2021/10/28 22:53:03;;;;;;;17.25;12.63;;;;;;;;;;5055950;28;20201;-87
2021/10/28 22:55:34;;;;;;;18.33;12.40;;;;;;;;;;5057048;28;20178;-84
2021/10/28 22:58:07;;;;;;;14.82;12.02;;;;;;;;;;5056167;28;20204;-86
2021/10/28 23:00:43;;;;;;;19.17;14.45;;;;;;;;;;5057547;28;20213;-87
2021/10/28 23:03:21;;;;;;;17.92;12.93;;;;;;;;;;5056254;28;20573;-85
2021/10/28 23:06:15;;;;;;;20.85;14.40;;;;;;;;;;5057232;28;20209;-87
2021/10/28 23:09:03;;;;;;;21.02;15.52;;;;;;;;;;5057167;28;20222;-87
2021/10/28 23:11:46;;;;;;;22.38;14.43;;;;;;;;;;5059085;28;20272;-87
2021/10/28 23:14:23;;;;;;;19.73;14.23;;;;;;;;;;5040220;28;20246;-86
2021/10/28 23:17:04;;;;;;;16.85;12.50;;;;;;;;;;5038838;28;20574;-86
2021/10/28 23:22:25;;;;;;;16.52;13.15;;;;;;;;;;5054048;28;20666;-85
2021/10/28 23:24:54;;;;;;;17.35;15.18;;;;;;;;;;5057643;28;20190;-85
2021/10/28 23:27:21;;;;;;;19.70;15.20;;;;;;;;;;5059677;28;20222;-86
2021/10/28 23:29:49;;;;;;;22.23;17.60;;;;;;;;;;5060056;28;20309;-86
2021/10/28 23:32:16;;;;;;;17.27;13.48;;;;;;;;;;5059100;28;20189;-86
2021/10/28 23:34:44;;;;;;;18.00;14.30;;;;;;;;;;5057668;28;20198;-86
2021/10/28 23:37:12;;;;;;;21.38;15.75;;;;;;;;;;5056426;28;20720;-85
2021/10/28 23:39:41;;;;;;;22.85;17.08;;;;;;;;;;5057612;28;20240;-86
2021/10/28 23:42:10;;;;;;;20.85;14.35;;;;;;;;;;5056492;28;20194;-86
2021/10/28 23:44:37;;;;;;;20.92;14.98;;;;;;;;;;5056784;28;20190;-86
2021/10/28 23:47:05;;;;;;;18.60;14.70;;;;;;;;;;5056231;28;20206;-86
2021/10/28 23:49:32;;;;;;;18.40;14.20;;;;;;;;;;5057464;28;20708;-85
2021/10/28 23:52:00;;;;;;;20.70;15.57;;;;;;;;;;5055926;28;20688;-84
2021/10/28 23:54:28;;;;;;;20.42;15.43;;;;;;;;;;5056377;28;20244;-86
2021/10/28 23:56:55;;;;;;;18.58;14.15;;;;;;;;;;5057170;28;20202;-86
2021/10/28 23:59:24;;;;;;;19.58;14.70;;;;;;;;;;5056040;28;20236;-87
